createdAt,value
2023-02-11T00:02:16.484Z,11.67
2023-02-11T00:07:18.380Z,10.70
2023-02-11T00:12:20.287Z,12.20
2023-02-11T00:17:22.172Z,10.73
2023-02-11T00:22:24.096Z,12.23
2023-02-11T00:27:26.057Z,11.87
2023-02-11T00:32:27.927Z,12.33
2023-02-11T00:37:29.774Z,11.10
2023-02-11T00:42:31.858Z,11.50
2023-02-11T00:47:33.648Z,11.73
2023-02-11T00:52:35.710Z,12.03
2023-02-11T00:57:37.670Z,10.90
2023-02-11T01:02:39.608Z,12.00
2023-02-11T01:07:41.510Z,11.27
2023-02-11T01:12:43.417Z,11.23
2023-02-11T08:06:42.563Z,16.60
2023-02-11T08:23:19.795Z,16.27
2023-02-11T08:28:22.908Z,15.63
2023-02-11T08:33:27.110Z,15.53
2023-02-11T08:38:30.070Z,16.57
2023-02-11T08:43:35.904Z,16.17
2023-02-11T08:49:01.258Z,14.73
2023-02-11T08:54:04.946Z,16.03
2023-02-11T09:05:41.471Z,14.53
2023-02-11T09:43:43.632Z,15.80
2023-02-11T09:49:20.868Z,15.30
2023-02-11T09:54:45.571Z,15.33
2023-02-11T09:59:49.299Z,15.43
2023-02-11T10:05:05.722Z,14.13
2023-02-11T10:10:41.811Z,14.03
2023-02-11T10:16:00.057Z,14.20
2023-02-11T10:21:18.239Z,12.97
2023-02-11T10:26:20.828Z,16.67
2023-02-11T10:31:39.964Z,15.93
2023-02-11T10:36:43.838Z,12.73
2023-02-11T10:41:55.242Z,13.43
2023-02-11T10:47:11.122Z,14.77
2023-02-11T10:52:27.862Z,16.70
2023-02-11T10:57:51.074Z,15.53
2023-02-11T11:02:59.358Z,15.17
2023-02-11T11:08:05.480Z,14.53
2023-02-11T11:13:26.262Z,13.47
2023-02-11T11:18:28.067Z,17.13
2023-02-11T11:23:31.022Z,14.73
2023-02-11T11:28:56.963Z,14.73
2023-02-11T11:34:01.539Z,14.20
2023-02-11T11:39:19.390Z,14.50
2023-02-11T11:44:51.938Z,13.30
2023-02-11T11:50:06.570Z,13.00
2023-02-11T11:55:20.564Z,15.03
2023-02-11T12:00:31.415Z,15.20
2023-02-11T12:06:07.404Z,14.60
2023-02-11T12:11:33.473Z,15.13
2023-02-11T12:17:01.978Z,13.97
2023-02-11T12:22:10.981Z,13.13
2023-02-11T12:27:42.432Z,11.53
2023-02-11T12:33:05.383Z,13.40
2023-02-11T12:38:25.597Z,13.70
2023-02-11T12:43:39.569Z,13.40
2023-02-11T12:48:56.684Z,13.13
2023-02-11T12:54:01.869Z,14.67
2023-02-11T12:59:07.679Z,12.00
2023-02-11T13:04:32.591Z,12.13
2023-02-11T13:09:57.698Z,12.53
2023-02-11T13:15:08.134Z,11.90
2023-02-11T13:20:38.338Z,12.83
2023-02-11T13:25:46.385Z,12.83
2023-02-11T13:30:52.494Z,12.87
2023-02-11T13:35:57.514Z,12.00
2023-02-11T13:41:24.778Z,13.00
2023-02-11T13:46:29.019Z,11.53
2023-02-11T13:51:40.482Z,12.77
2023-02-11T13:56:44.088Z,11.57
2023-02-11T14:02:07.426Z,13.00
2023-02-11T14:07:49.901Z,13.13
2023-02-11T14:13:18.126Z,13.67
2023-02-11T14:18:38.596Z,12.70
2023-02-11T14:23:41.552Z,11.80
2023-02-11T14:28:46.794Z,11.30
2023-02-11T14:34:14.618Z,13.70
2023-02-11T14:39:25.477Z,12.17
2023-02-11T14:44:30.498Z,11.80
2023-02-11T14:49:39.406Z,14.00
2023-02-11T14:54:44.085Z,14.00
2023-02-11T15:00:04.301Z,13.80
2023-02-11T15:05:23.598Z,14.20
2023-02-11T15:10:28.252Z,13.00
2023-02-11T15:15:31.646Z,13.80
2023-02-11T15:20:35.823Z,13.37
2023-02-11T15:25:51.356Z,13.13
2023-02-11T15:31:03.898Z,13.50
2023-02-11T15:36:06.438Z,13.70
2023-02-11T15:41:08.617Z,12.67
2023-02-11T15:46:17.069Z,13.97
2023-02-11T15:51:29.499Z,12.90
2023-02-11T18:14:12.310Z,16.40
2023-02-11T18:19:14.441Z,15.73
2023-02-11T18:24:17.295Z,14.50
2023-02-11T18:29:19.471Z,14.73
2023-02-11T18:34:21.618Z,16.00
2023-02-11T18:39:24.451Z,19.80
2023-02-11T18:44:27.606Z,18.20
2023-02-11T18:49:29.873Z,17.53
2023-02-11T18:54:32.036Z,16.10
2023-02-11T18:59:34.696Z,17.90
2023-02-11T19:04:37.441Z,19.73
2023-02-11T19:09:39.714Z,16.13
2023-02-11T19:14:41.835Z,17.40
2023-02-11T19:19:43.847Z,16.00
2023-02-11T19:24:46.457Z,17.67
2023-02-11T19:29:48.462Z,14.47
2023-02-11T19:34:51.781Z,17.90
2023-02-11T19:39:53.945Z,18.33
2023-02-11T19:44:57.242Z,15.07
2023-02-11T19:49:59.278Z,19.40
2023-02-11T19:55:01.201Z,18.27
2023-02-11T20:00:11.929Z,17.30
2023-02-11T20:05:15.445Z,16.43
2023-02-11T20:10:23.086Z,17.50
2023-02-11T20:15:33.006Z,18.90
2023-02-11T20:20:45.374Z,16.17
2023-02-11T20:25:54.812Z,16.70
2023-02-11T20:31:04.526Z,16.03
2023-02-11T20:36:15.872Z,16.70
2023-02-11T20:41:27.962Z,15.60
2023-02-11T20:46:33.028Z,15.83
2023-02-11T20:51:36.648Z,16.43
2023-02-11T20:56:39.532Z,15.70
2023-02-11T21:01:44.323Z,16.00
2023-02-11T21:06:48.832Z,18.23
2023-02-11T21:11:52.676Z,20.77
2023-02-11T21:16:54.750Z,26.90
2023-02-11T21:22:00.626Z,19.10
2023-02-11T21:27:03.006Z,18.57
2023-02-11T21:32:05.211Z,18.87
2023-02-11T21:37:07.132Z,18.93
2023-02-11T21:42:09.600Z,24.23
2023-02-11T21:47:11.547Z,17.83
2023-02-11T21:52:13.553Z,19.10
2023-02-11T21:57:15.458Z,21.10
2023-02-11T22:02:17.396Z,20.13
2023-02-11T22:07:20.621Z,24.17
2023-02-11T22:12:23.216Z,21.83
2023-02-11T22:17:25.213Z,18.17
2023-02-11T22:22:29.169Z,19.80
2023-02-11T22:27:31.126Z,17.33
2023-02-11T22:32:33.044Z,17.97
2023-02-11T22:37:35.102Z,17.30
2023-02-11T22:42:37.069Z,16.10
2023-02-11T22:47:39.050Z,18.03
2023-02-11T22:52:40.949Z,17.97
2023-02-11T22:57:43.027Z,17.73
2023-02-11T23:02:44.950Z,17.70
2023-02-11T23:07:46.964Z,16.77
2023-02-11T23:12:48.799Z,14.50
2023-02-11T23:17:50.704Z,16.50
2023-02-11T23:22:52.819Z,17.30
2023-02-11T23:27:54.963Z,20.30
2023-02-11T23:32:57.039Z,17.80
2023-02-11T23:37:58.967Z,16.93
2023-02-11T23:43:00.883Z,16.67
2023-02-11T23:48:02.859Z,17.27
2023-02-11T23:53:04.774Z,18.47
2023-02-11T23:58:06.720Z,14.20
